Time;durP1;ratioP1;P1;durP2;ratioP2;P2;SDS_P1;SDS_P2;PMS_P1;PMS_P2;Temp;Humidity;BMP_temperature;BMP_pressure;BME280_temperature;BME280_humidity;BME280_pressure;Samples;Min_cycle;Max_cycle;Signal;HPM_P1;HPM_P2
2022/06/05 00:02:20;;;;;;;5.53;4.15;;;18.60;99.90;;;;;;5006693;28;20065;-61
2022/06/05 00:04:57;;;;;;;5.28;4.15;;;18.60;99.90;;;;;;4983564;28;20088;-57
2022/06/05 00:07:36;;;;;;;4.57;3.95;;;18.60;99.90;;;;;;5008803;28;20060;-57
2022/06/05 00:10:17;;;;;;;5.47;4.05;;;18.60;99.90;;;;;;5011441;28;20026;-57
2022/06/05 00:13:04;;;;;;;4.55;4.13;;;18.60;99.90;;;;;;5009701;28;20028;-56
2022/06/05 00:15:30;;;;;;;5.43;4.82;;;18.70;99.90;;;;;;5011806;28;20034;-60
2022/06/05 00:17:56;;;;;;;6.65;4.93;;;18.70;99.90;;;;;;5010186;28;20487;-57
2022/06/05 00:20:23;;;;;;;4.45;4.05;;;18.70;99.90;;;;;;5012906;28;20037;-60
2022/06/05 00:22:48;;;;;;;4.50;3.83;;;18.70;99.90;;;;;;5008905;28;20022;-57
2022/06/05 00:25:14;;;;;;;6.20;4.30;;;18.70;99.90;;;;;;5010337;28;20030;-59
2022/06/05 00:27:56;;;;;;;6.95;4.30;;;18.70;99.90;;;;;;5010782;28;20439;-59
2022/06/05 00:30:29;;;;;;;8.68;4.65;;;18.60;99.90;;;;;;5009118;28;20499;-54
2022/06/05 00:33:06;;;;;;;6.03;4.20;;;18.60;99.90;;;;;;5008763;28;20761;-58
2022/06/05 00:35:44;;;;;;;4.15;3.75;;;18.60;99.90;;;;;;5009755;28;20554;-56
2022/06/05 00:38:43;;;;;;;4.63;4.20;;;18.60;99.90;;;;;;5006523;28;20583;-60
2022/06/05 00:41:46;;;;;;;6.55;4.18;;;18.40;99.90;;;;;;5009543;28;20497;-61
2022/06/05 00:44:17;;;;;;;6.25;4.57;;;18.40;99.90;;;;;;5008875;28;20101;-55
2022/06/05 00:46:44;;;;;;;4.50;4.07;;;18.40;99.90;;;;;;5003383;28;20052;-60
2022/06/05 00:49:10;;;;;;;5.82;4.53;;;18.30;99.90;;;;;;5009735;28;20117;-57
2022/06/05 00:51:36;;;;;;;6.32;4.03;;;18.40;99.90;;;;;;4990374;28;20050;-55
2022/06/05 00:54:02;;;;;;;6.00;4.57;;;18.40;99.90;;;;;;5009896;28;20392;-57
2022/06/05 00:56:28;;;;;;;4.90;4.40;;;18.40;99.90;;;;;;5011308;28;20036;-57
2022/06/05 00:58:54;;;;;;;5.85;4.57;;;18.40;99.90;;;;;;5006092;28;20022;-59
2022/06/05 01:01:20;;;;;;;5.25;4.13;;;18.50;99.90;;;;;;5006296;28;20060;-60
2022/06/05 01:03:47;;;;;;;4.07;3.60;;;18.50;99.90;;;;;;5007417;28;20546;-59
2022/06/05 01:06:13;;;;;;;5.10;4.60;;;18.40;99.90;;;;;;4989834;28;20038;-58
2022/06/05 01:08:39;;;;;;;5.32;3.92;;;18.40;99.90;;;;;;5004230;28;20502;-60
2022/06/05 01:11:11;;;;;;;6.47;4.70;;;18.40;99.90;;;;;;5006974;28;20487;-57
2022/06/05 01:13:56;;;;;;;4.38;3.67;;;18.40;99.90;;;;;;5002051;28;20029;-54
2022/06/05 01:16:25;;;;;;;6.78;4.00;;;18.50;99.90;;;;;;5007021;28;20108;-60
2022/06/05 01:19:18;;;;;;;4.95;4.05;;;18.40;99.90;;;;;;5005124;28;20049;-61
2022/06/05 01:22:05;;;;;;;3.85;3.55;;;18.40;99.90;;;;;;5007613;28;21528;-58
2022/06/05 01:24:52;;;;;;;4.82;3.72;;;18.40;99.90;;;;;;5003972;28;20271;-57
2022/06/05 01:27:22;;;;;;;6.15;4.07;;;18.40;99.90;;;;;;5007048;28;20037;-55
2022/06/05 01:30:08;;;;;;;4.72;3.70;;;18.30;99.90;;;;;;5004919;28;20033;-58
2022/06/05 01:32:34;;;;;;;4.82;4.38;;;18.40;99.90;;;;;;5006770;28;20125;-57
2022/06/05 01:35:18;;;;;;;5.60;3.70;;;18.40;99.90;;;;;;5004348;28;20555;-57
2022/06/05 01:37:48;;;;;;;;;;;18.40;99.90;;;;;;5010205;28;20030;-59
2022/06/05 01:40:40;;;;;;;6.60;3.67;;;18.40;99.90;;;;;;5008875;28;19910;-57
2022/06/05 01:43:12;;;;;;;6.60;3.55;;;18.40;99.90;;;;;;5008454;28;20066;-58
2022/06/05 01:45:49;;;;;;;5.93;4.22;;;18.40;99.90;;;;;;5002581;28;20030;-57
2022/06/05 01:48:22;;;;;;;5.38;3.83;;;18.40;99.90;;;;;;5010455;28;20387;-60
2022/06/05 01:51:00;;;;;;;4.67;4.00;;;18.40;99.90;;;;;;5007317;28;20044;-57
2022/06/05 01:53:46;;;;;;;4.18;3.30;;;18.40;99.90;;;;;;5009855;28;20522;-58
2022/06/05 01:56:21;;;;;;;5.97;4.18;;;18.30;99.90;;;;;;5005358;28;20402;-54
2022/06/05 01:59:01;;;;;;;6.18;3.80;;;18.30;99.90;;;;;;5004933;28;20030;-55
2022/06/05 02:01:36;;;;;;;5.63;3.83;;;18.30;99.90;;;;;;5007672;28;20014;-58
2022/06/05 02:04:12;;;;;;;5.18;3.80;;;18.20;99.90;;;;;;5007451;28;20030;-57
2022/06/05 02:06:56;;;;;;;4.32;3.40;;;18.30;99.90;;;;;;4989781;28;20049;-57
2022/06/05 02:09:25;;;;;;;;;;;18.20;99.90;;;;;;5005829;28;20097;-58
2022/06/05 02:11:51;;;;;;;6.40;4.45;;;18.20;99.90;;;;;;5002632;28;20398;-58
2022/06/05 02:14:17;;;;;;;6.63;3.90;;;18.20;99.90;;;;;;4994806;28;20030;-57
2022/06/05 02:16:43;;;;;;;5.95;4.03;;;18.20;99.90;;;;;;5001465;28;20495;-58
2022/06/05 02:19:13;;;;;;;7.95;4.95;;;18.20;99.90;;;;;;5001223;28;20076;-58
2022/06/05 02:21:39;;;;;;;7.05;4.05;;;18.20;99.90;;;;;;5006315;28;20030;-57
2022/06/05 02:24:07;;;;;;;5.32;3.58;;;18.20;99.90;;;;;;5009890;28;20033;-60
2022/06/05 02:26:33;;;;;;;4.30;3.72;;;18.10;99.90;;;;;;5008095;28;20029;-60
2022/06/05 02:29:03;;;;;;;5.65;4.38;;;18.10;99.90;;;;;;5008734;28;20061;-59
2022/06/05 02:31:56;;;;;;;5.20;4.32;;;18.00;99.90;;;;;;5007667;28;20044;-58
2022/06/05 02:34:26;;;;;;;4.88;3.53;;;18.00;99.90;;;;;;5010537;28;20022;-56
2022/06/05 02:36:57;;;;;;;5.03;3.72;;;17.90;99.90;;;;;;5007850;28;20048;-58
2022/06/05 02:39:44;;;;;;;9.90;4.57;;;17.90;99.90;;;;;;5007989;28;20406;-60
2022/06/05 02:42:30;;;;;;;5.38;3.45;;;17.90;99.90;;;;;;5004578;28;20053;-58
2022/06/05 02:45:05;;;;;;;11.38;4.10;;;17.90;99.90;;;;;;5008293;28;20018;-57
2022/06/05 02:47:48;;;;;;;4.85;3.50;;;17.80;99.90;;;;;;5010315;28;20034;-58
2022/06/05 02:50:49;;;;;;;8.75;4.65;;;17.80;99.90;;;;;;5008583;28;20037;-58
2022/06/05 02:53:15;;;;;;;8.02;3.92;;;17.80;99.90;;;;;;5012690;28;20042;-58
2022/06/05 02:55:42;;;;;;;4.85;3.97;;;17.80;99.90;;;;;;5011524;28;20446;-58
2022/06/05 02:58:09;;;;;;;7.68;4.38;;;17.80;99.90;;;;;;5012283;28;20088;-59
2022/06/05 03:00:38;;;;;;;4.85;4.05;;;17.70;99.90;;;;;;5009574;28;20077;-56
2022/06/05 03:05:49;;;;;;;7.45;4.57;;;17.80;99.90;;;;;;4995289;28;20111;-57
2022/06/05 03:08:17;;;;;;;5.80;4.15;;;17.90;99.90;;;;;;5012112;28;20431;-58
2022/06/05 03:10:44;;;;;;;4.80;4.07;;;17.90;99.90;;;;;;5012265;28;20095;-60
2022/06/05 03:13:11;;;;;;;4.30;3.90;;;18.00;99.90;;;;;;5008018;28;20052;-55
2022/06/05 03:15:36;;;;;;;4.30;3.90;;;18.00;99.90;;;;;;5011480;28;20022;-57
2022/06/05 03:18:02;;;;;;;8.65;4.35;;;17.90;99.90;;;;;;5008840;28;20022;-55
2022/06/05 03:20:28;;;;;;;8.07;4.55;;;18.00;99.90;;;;;;5011126;28;20084;-62
2022/06/05 03:22:54;;;;;;;4.95;4.07;;;17.90;99.90;;;;;;5007053;28;20428;-57
2022/06/05 03:25:23;;;;;;;5.75;4.32;;;17.90;99.90;;;;;;5010157;28;20042;-58
2022/06/05 03:27:49;;;;;;;6.03;3.80;;;17.90;99.90;;;;;;5010341;28;20030;-54
2022/06/05 03:30:16;;;;;;;5.68;3.85;;;17.90;99.90;;;;;;5011695;28;20041;-60
2022/06/05 03:32:42;;;;;;;7.05;4.30;;;17.90;99.90;;;;;;5010274;28;20045;-57
2022/06/05 03:35:09;;;;;;;5.50;4.03;;;17.90;99.90;;;;;;5011493;28;20034;-60
2022/06/05 03:37:35;;;;;;;8.25;3.90;;;17.90;99.90;;;;;;5009082;28;20163;-57
2022/06/05 03:40:02;;;;;;;6.22;4.18;;;17.90;99.90;;;;;;5010375;28;20026;-54
2022/06/05 03:42:28;;;;;;;4.15;3.72;;;17.90;99.90;;;;;;5010527;28;20026;-59
2022/06/05 03:44:53;;;;;;;4.95;4.20;;;17.90;99.90;;;;;;5010160;28;20121;-58
2022/06/05 03:47:19;;;;;;;7.38;4.00;;;17.90;99.90;;;;;;5010787;28;20036;-60
2022/06/05 03:49:45;;;;;;;8.48;4.13;;;18.00;99.90;;;;;;5011752;28;20049;-59
2022/06/05 03:52:11;;;;;;;6.88;4.10;;;17.90;99.90;;;;;;5011699;28;20030;-60
2022/06/05 03:54:39;;;;;;;6.50;4.40;;;17.90;99.90;;;;;;5009282;28;20032;-59
2022/06/05 03:57:06;;;;;;;4.78;3.92;;;17.90;99.90;;;;;;5009935;28;20398;-56
2022/06/05 03:59:34;;;;;;;5.00;4.50;;;17.90;99.90;;;;;;5008615;28;20022;-54
2022/06/05 04:02:00;;;;;;;13.20;4.35;;;17.80;99.90;;;;;;5011776;28;20048;-51
2022/06/05 04:04:26;;;;;;;4.30;3.88;;;17.80;99.90;;;;;;5008677;28;20026;-57
2022/06/05 04:06:51;;;;;;;5.68;4.22;;;17.80;99.90;;;;;;4992102;28;20049;-57
2022/06/05 04:09:17;;;;;;;5.68;4.30;;;17.80;99.90;;;;;;5008746;28;20411;-59
2022/06/05 04:11:42;;;;;;;7.72;4.78;;;17.80;99.90;;;;;;5011288;28;20072;-59
2022/06/05 04:14:09;;;;;;;7.28;4.47;;;17.90;99.90;;;;;;5008827;28;20030;-58
2022/06/05 04:16:36;;;;;;;5.75;4.38;;;17.90;99.90;;;;;;5011259;28;20026;-59
2022/06/05 04:19:03;;;;;;;8.10;4.28;;;17.90;99.90;;;;;;5009045;28;20018;-59
2022/06/05 04:21:34;;;;;;;4.80;4.40;;;18.00;99.90;;;;;;5010810;28;20107;-59
2022/06/05 04:24:00;;;;;;;5.13;4.30;;;18.00;99.90;;;;;;5008259;28;20450;-49
2022/06/05 04:26:29;;;;;;;9.07;4.18;;;18.00;99.90;;;;;;5009747;28;20018;-56
2022/06/05 04:28:55;;;;;;;6.60;4.28;;;18.00;99.90;;;;;;5006393;28;20568;-60
2022/06/05 04:31:22;;;;;;;7.47;4.13;;;18.00;99.90;;;;;;5011141;28;20097;-58
2022/06/05 04:33:50;;;;;;;5.43;4.53;;;18.10;99.90;;;;;;5010674;28;20553;-58
2022/06/05 04:36:16;;;;;;;5.18;4.57;;;18.10;99.90;;;;;;5009197;28;20077;-55
2022/06/05 04:38:42;;;;;;;6.93;4.95;;;18.10;99.90;;;;;;5004318;28;20026;-56
2022/06/05 04:41:09;;;;;;;7.45;4.88;;;18.20;99.90;;;;;;5009773;28;20684;-55
2022/06/05 04:43:35;;;;;;;8.65;4.35;;;18.30;99.90;;;;;;5009421;28;20044;-58
2022/06/05 04:46:01;;;;;;;9.35;5.35;;;18.30;99.90;;;;;;5010530;28;20108;-48
2022/06/05 04:48:27;;;;;;;5.85;5.10;;;18.40;99.90;;;;;;5010649;28;20530;-59
2022/06/05 04:50:52;;;;;;;7.07;4.90;;;18.40;99.90;;;;;;5009694;28;20026;-59
2022/06/05 04:53:19;;;;;;;4.78;4.28;;;18.40;99.90;;;;;;5009647;28;20168;-61
2022/06/05 04:55:45;;;;;;;5.38;4.40;;;18.50;99.90;;;;;;5016167;28;20021;-60
2022/06/05 04:58:11;;;;;;;5.93;4.85;;;18.50;99.90;;;;;;5009965;28;20479;-61
2022/06/05 05:00:36;;;;;;;6.70;4.97;;;18.60;99.90;;;;;;5010752;28;20037;-59
2022/06/05 05:03:02;;;;;;;6.57;4.78;;;18.60;99.90;;;;;;5008281;28;20037;-56
2022/06/05 05:05:27;;;;;;;6.70;4.85;;;18.60;99.90;;;;;;4991804;28;20049;-57
2022/06/05 05:07:53;;;;;;;7.45;4.82;;;18.70;99.90;;;;;;5008915;28;20380;-59
2022/06/05 05:10:19;;;;;;;4.85;4.45;;;18.60;99.90;;;;;;5009380;28;20157;-59
2022/06/05 05:12:45;;;;;;;5.82;5.20;;;18.60;99.90;;;;;;5009463;28;20034;-58
2022/06/05 05:15:11;;;;;;;11.18;4.88;;;18.70;99.90;;;;;;5009933;28;20470;-57
2022/06/05 05:17:37;;;;;;;5.78;5.00;;;18.80;99.90;;;;;;5010834;28;20034;-58
2022/06/05 05:20:04;;;;;;;5.97;5.03;;;18.80;99.90;;;;;;5009693;28;20647;-58
2022/06/05 05:22:36;;;;;;;5.47;4.97;;;18.80;99.90;;;;;;5009241;28;20030;-58
2022/06/05 05:25:02;;;;;;;5.57;4.68;;;18.80;99.90;;;;;;5008749;28;20033;-58
2022/06/05 05:27:27;;;;;;;6.57;5.00;;;18.90;99.90;;;;;;5010030;28;20091;-59
2022/06/05 05:29:53;;;;;;;5.25;4.75;;;18.90;99.90;;;;;;5008855;28;20022;-59
2022/06/05 05:32:18;;;;;;;10.70;5.15;;;18.90;99.90;;;;;;5011465;28;20030;-56
2022/06/05 05:34:44;;;;;;;5.68;4.50;;;18.90;99.90;;;;;;5008527;28;20033;-58
2022/06/05 05:37:10;;;;;;;7.38;5.25;;;18.90;99.90;;;;;;5008741;28;20080;-57
2022/06/05 05:42:20;;;;;;;6.13;4.63;;;19.00;99.90;;;;;;5007814;28;20107;-60
2022/06/05 05:44:47;;;;;;;5.78;5.05;;;19.00;99.90;;;;;;5008795;28;20941;-55
2022/06/05 05:47:21;;;;;;;6.28;4.60;;;19.00;99.90;;;;;;5011114;28;20173;-55
2022/06/05 05:49:52;;;;;;;6.30;4.35;;;19.10;99.90;;;;;;5009201;28;20028;-58
2022/06/05 05:52:17;;;;;;;5.80;4.78;;;19.10;99.90;;;;;;5011295;28;20097;-58
2022/06/05 05:54:43;;;;;;;9.23;4.93;;;19.10;99.90;;;;;;5009542;28;20114;-58
2022/06/05 05:57:09;;;;;;;5.93;5.07;;;19.10;99.90;;;;;;5008799;28;20061;-57
2022/06/05 05:59:35;;;;;;;7.85;4.93;;;19.10;99.90;;;;;;5009393;28;20717;-59
2022/06/05 06:02:01;;;;;;;9.20;4.65;;;19.10;99.90;;;;;;5009700;28;20022;-57
2022/06/05 06:04:27;;;;;;;6.45;4.82;;;19.20;99.90;;;;;;5008393;28;20125;-56
2022/06/05 06:06:53;;;;;;;8.68;4.45;;;19.20;99.90;;;;;;4993063;28;20125;-57
2022/06/05 06:09:19;;;;;;;8.65;5.47;;;19.30;99.90;;;;;;5008592;28;20033;-57
2022/06/05 06:11:45;;;;;;;8.05;5.75;;;19.30;99.90;;;;;;5008604;28;20030;-59
2022/06/05 06:14:11;;;;;;;9.40;5.03;;;19.30;99.90;;;;;;5007152;28;20080;-55
2022/06/05 06:16:37;;;;;;;8.50;5.70;;;19.30;99.90;;;;;;5009107;28;20455;-59
2022/06/05 06:19:03;;;;;;;5.80;4.32;;;19.30;99.90;;;;;;5007841;28;20033;-60
2022/06/05 06:21:29;;;;;;;5.82;4.63;;;19.30;99.90;;;;;;5010737;28;20458;-60
2022/06/05 06:23:54;;;;;;;9.95;5.00;;;19.30;99.90;;;;;;5012907;28;20122;-60
2022/06/05 06:26:20;;;;;;;7.03;4.70;;;19.30;99.90;;;;;;5011875;28;20037;-56
2022/06/05 06:28:46;;;;;;;5.70;5.07;;;19.40;99.90;;;;;;5012232;28;20049;-56
2022/06/05 06:31:16;;;;;;;5.43;4.93;;;19.50;99.90;;;;;;5012061;28;20068;-60
2022/06/05 06:33:42;;;;;;;5.22;4.72;;;19.50;99.90;;;;;;5016699;28;20442;-60
2022/06/05 06:36:11;;;;;;;6.85;4.70;;;19.50;99.90;;;;;;5016576;28;20022;-56
2022/06/05 06:38:37;;;;;;;5.10;4.50;;;19.50;99.90;;;;;;5013507;28;20632;-58
2022/06/05 06:41:05;;;;;;;6.82;4.63;;;19.60;99.90;;;;;;5013062;28;20057;-55
2022/06/05 06:43:32;;;;;;;9.38;5.15;;;19.70;99.90;;;;;;5010755;28;20087;-56
2022/06/05 06:45:58;;;;;;;4.97;4.47;;;19.80;99.90;;;;;;5012192;28;20070;-58
2022/06/05 06:48:25;;;;;;;6.63;5.38;;;19.80;99.90;;;;;;5011097;28;20068;-60
2022/06/05 06:50:53;;;;;;;6.72;4.93;;;19.80;99.90;;;;;;5013098;28;20118;-58
2022/06/05 06:53:20;;;;;;;6.10;5.07;;;19.80;99.90;;;;;;5012540;28;20025;-59
2022/06/05 06:55:46;;;;;;;5.65;4.68;;;19.80;99.90;;;;;;5010598;28;20026;-58
2022/06/05 06:58:12;;;;;;;5.70;4.53;;;19.90;99.90;;;;;;5010909;28;20399;-58
2022/06/05 07:00:38;;;;;;;8.02;5.15;;;19.80;99.80;;;;;;5012995;28;20032;-58
2022/06/05 07:03:03;;;;;;;5.35;4.85;;;19.80;99.90;;;;;;5011866;28;20101;-57
2022/06/05 07:05:29;;;;;;;5.57;4.97;;;20.00;99.90;;;;;;4997069;28;20030;-61
2022/06/05 07:07:55;;;;;;;6.75;5.43;;;20.10;99.90;;;;;;5013943;28;20042;-61
2022/06/05 07:10:21;;;;;;;5.43;4.32;;;20.20;99.60;;;;;;5027482;28;20057;-57
2022/06/05 07:12:47;;;;;;;5.00;4.50;;;20.20;99.90;;;;;;5010551;28;20026;-59
2022/06/05 07:15:13;;;;;;;5.93;4.72;;;20.30;99.60;;;;;;5011923;28;20105;-60
2022/06/05 07:17:39;;;;;;;5.72;4.63;;;20.50;99.90;;;;;;5017512;28;20109;-61
2022/06/05 07:20:05;;;;;;;4.13;3.28;;;20.60;99.40;;;;;;5012044;28;20029;-59
2022/06/05 07:22:31;;;;;;;5.60;5.00;;;20.70;98.90;;;;;;5012375;28;20038;-58
2022/06/05 07:24:56;;;;;;;4.38;3.97;;;20.70;98.70;;;;;;5010818;28;20112;-58
2022/06/05 07:27:23;;;;;;;7.32;4.72;;;20.80;98.40;;;;;;5011062;28;20064;-60
2022/06/05 07:29:49;;;;;;;5.10;3.95;;;20.90;98.40;;;;;;5011667;28;20072;-59
2022/06/05 07:32:15;;;;;;;10.15;4.60;;;21.10;98.60;;;;;;5015424;28;20034;-61
2022/06/05 07:34:41;;;;;;;5.20;4.22;;;21.20;97.80;;;;;;5009398;28;20025;-59
2022/06/05 07:37:07;;;;;;;8.07;4.57;;;21.30;98.10;;;;;;5010907;28;20022;-58
2022/06/05 07:39:33;;;;;;;6.85;4.30;;;21.60;97.50;;;;;;5010060;28;20030;-57
2022/06/05 07:41:58;;;;;;;7.32;4.00;;;21.70;97.20;;;;;;5010709;28;20634;-59
2022/06/05 07:44:25;;;;;;;3.92;3.58;;;21.80;96.80;;;;;;5012786;28;20048;-59
2022/06/05 07:46:52;;;;;;;4.25;3.80;;;22.20;96.80;;;;;;5017773;28;20100;-60
2022/06/05 07:49:18;;;;;;;8.52;3.78;;;22.50;96.40;;;;;;5010118;28;20045;-60
2022/06/05 07:54:33;;;;;;;7.65;3.78;;;23.30;94.70;;;;;;5017022;28;20044;-61
2022/06/05 07:57:02;;;;;;;4.78;3.72;;;23.60;94.50;;;;;;5009577;28;20026;-60
2022/06/05 07:59:31;;;;;;;5.13;3.63;;;23.60;94.70;;;;;;5011401;28;20113;-59
2022/06/05 08:01:58;;;;;;;5.75;3.78;;;23.70;94.70;;;;;;5028179;28;20025;-61
2022/06/05 08:04:28;;;;;;;3.90;3.50;;;23.40;94.60;;;;;;5011534;28;20049;-61
2022/06/05 08:06:57;;;;;;;7.15;4.00;;;23.10;94.90;;;;;;4984430;28;20412;-58
2022/06/05 08:09:22;;;;;;;5.55;3.95;;;22.90;95.20;;;;;;4989615;28;20040;-61
2022/06/05 08:11:48;;;;;;;5.07;3.80;;;22.50;95.40;;;;;;4993531;28;20026;-60
2022/06/05 08:14:14;;;;;;;4.75;3.60;;;22.30;96.40;;;;;;4991166;28;20049;-59
2022/06/05 08:16:43;;;;;;;5.07;4.47;;;22.10;96.40;;;;;;4990628;28;20030;-57
2022/06/05 08:19:13;;;;;;;6.13;4.07;;;21.90;96.90;;;;;;4986688;28;20030;-61
2022/06/05 08:21:40;;;;;;;8.27;4.50;;;21.80;97.30;;;;;;4991977;28;20101;-59
2022/06/05 08:24:06;;;;;;;4.95;4.50;;;21.80;97.80;;;;;;4991429;28;20058;-59
2022/06/05 08:26:32;;;;;;;5.75;4.25;;;21.80;98.00;;;;;;4989221;28;20032;-61
2022/06/05 08:28:57;;;;;;;8.65;4.70;;;21.80;98.40;;;;;;4987820;28;20030;-53
2022/06/05 08:31:23;;;;;;;5.97;4.22;;;21.70;98.00;;;;;;4988735;28;20497;-57
2022/06/05 08:33:49;;;;;;;11.25;4.63;;;21.70;98.70;;;;;;4988428;28;20026;-59
2022/06/05 08:36:14;;;;;;;6.90;4.22;;;21.60;99.20;;;;;;4987954;28;20037;-52
2022/06/05 08:41:33;;;;;;;5.43;4.93;;;21.30;99.50;;;;;;4985867;28;20524;-61
2022/06/05 08:44:17;;;;;;;7.82;4.50;;;21.20;99.40;;;;;;4987474;28;20514;-59
2022/06/05 08:46:42;;;;;;;;;;;21.10;99.90;;;;;;4989746;28;20031;-58
2022/06/05 08:49:19;;;;;;;8.30;4.40;;;21.10;99.90;;;;;;4989419;28;19916;-59
2022/06/05 08:51:56;;;;;;;6.00;5.13;;;20.90;99.90;;;;;;4989814;28;20471;-57
2022/06/05 08:54:36;;;;;;;6.53;5.78;;;20.70;99.90;;;;;;5002625;28;20023;-58
2022/06/05 08:57:08;;;;;;;7.43;5.68;;;20.80;99.90;;;;;;4989968;28;20029;-60
2022/06/05 09:00:03;;;;;;;5.72;5.15;;;20.70;99.90;;;;;;5000237;28;20032;-59
2022/06/05 09:02:32;;;;;;;6.63;4.88;;;20.70;99.90;;;;;;4990050;28;20135;-58
2022/06/05 09:05:01;;;;;;;8.50;5.53;;;20.70;99.90;;;;;;4991965;28;20030;-60
2022/06/05 09:07:48;;;;;;;8.68;5.68;;;20.60;99.90;;;;;;4971256;28;20046;-58
2022/06/05 09:10:59;;;;;;;8.02;5.63;;;20.60;99.90;;;;;;4996507;28;20030;-59
2022/06/05 09:13:43;;;;;;;13.23;5.95;;;20.50;99.90;;;;;;4998265;28;20038;-59
2022/06/05 09:16:24;;;;;;;8.48;6.75;;;20.40;99.90;;;;;;4995659;28;20026;-58
2022/06/05 09:18:51;;;;;;;8.45;6.50;;;20.30;99.90;;;;;;4988180;28;20018;-58
2022/06/05 09:21:24;;;;;;;6.82;6.20;;;20.20;99.90;;;;;;4992320;28;20109;-60
2022/06/05 09:24:15;;;;;;;10.13;6.43;;;20.20;99.90;;;;;;4988904;28;20026;-58
2022/06/05 09:26:44;;;;;;;7.38;6.53;;;20.00;99.90;;;;;;4985282;28;20070;-59
2022/06/05 09:29:15;;;;;;;8.13;7.32;;;19.70;99.90;;;;;;4987391;28;20531;-60
2022/06/05 09:31:44;;;;;;;13.98;8.77;;;19.50;99.90;;;;;;4989513;28;20065;-58
2022/06/05 09:34:47;;;;;;;9.55;8.48;;;19.30;99.90;;;;;;4995513;28;20143;-59
2022/06/05 09:37:37;;;;;;;11.98;9.25;;;19.10;99.90;;;;;;5003567;28;20041;-60
2022/06/05 09:40:16;;;;;;;10.70;9.70;;;18.90;99.90;;;;;;4987147;28;20042;-56
2022/06/05 09:42:48;;;;;;;15.35;9.10;;;18.70;99.90;;;;;;4994136;28;20057;-55
2022/06/05 09:45:24;;;;;;;12.05;8.95;;;18.70;99.90;;;;;;4986770;28;20038;-61
2022/06/05 09:48:27;;;;;;;12.20;9.05;;;18.70;99.90;;;;;;4990637;28;20113;-61
2022/06/05 09:50:54;;;;;;;9.23;8.02;;;18.80;99.90;;;;;;4988418;28;20018;-58
2022/06/05 09:53:47;;;;;;;9.05;8.05;;;19.00;99.90;;;;;;4978042;28;20156;-59
2022/06/05 09:56:25;;;;;;;10.52;8.60;;;19.10;99.90;;;;;;4990363;28;20034;-56
2022/06/05 09:59:24;;;;;;;10.55;9.10;;;19.10;99.90;;;;;;4984037;28;20026;-57
2022/06/05 10:02:00;;;;;;;9.95;8.35;;;19.20;99.90;;;;;;4989099;28;20057;-60
2022/06/05 10:04:33;;;;;;;10.07;8.38;;;19.40;99.90;;;;;;5006469;28;20030;-59
2022/06/05 10:07:13;;;;;;;12.13;8.63;;;19.50;99.90;;;;;;4972609;28;20043;-59
2022/06/05 10:09:45;;;;;;;8.65;7.70;;;19.70;99.90;;;;;;4984817;28;20037;-61
2022/06/05 10:12:38;;;;;;;8.68;7.15;;;19.90;99.90;;;;;;4988213;28;20034;-60
2022/06/05 10:15:19;;;;;;;8.38;7.57;;;19.90;99.90;;;;;;4984787;28;20628;-59
2022/06/05 10:17:53;;;;;;;10.35;8.48;;;19.90;99.90;;;;;;4990810;28;20026;-59
2022/06/05 10:20:46;;;;;;;8.88;8.00;;;19.90;99.90;;;;;;4990194;28;20037;-60
2022/06/05 10:23:32;;;;;;;9.52;7.10;;;20.00;99.90;;;;;;4988182;28;20034;-55
2022/06/05 10:26:15;;;;;;;12.48;8.07;;;19.90;99.90;;;;;;4981619;28;20369;-58
2022/06/05 10:28:42;;;;;;;9.30;8.40;;;19.80;99.90;;;;;;4991114;28;20030;-58
2022/06/05 10:31:11;;;;;;;8.57;7.68;;;19.70;99.90;;;;;;4995230;28;20030;-57
2022/06/05 10:33:39;;;;;;;9.48;8.57;;;19.60;99.90;;;;;;4979118;28;20053;-57
2022/06/05 10:36:11;;;;;;;9.65;8.77;;;19.50;99.90;;;;;;4988918;28;20108;-58
2022/06/05 10:39:00;;;;;;;9.85;8.80;;;19.30;99.90;;;;;;4988398;28;20027;-58
2022/06/05 10:41:53;;;;;;;9.75;8.85;;;19.30;99.90;;;;;;4990166;28;20110;-58
2022/06/05 10:44:27;;;;;;;9.85;8.85;;;19.30;99.90;;;;;;4994332;28;20542;-57
2022/06/05 10:47:17;;;;;;;11.23;9.07;;;19.30;99.90;;;;;;4987051;28;20088;-58
2022/06/05 10:49:45;;;;;;;8.90;8.00;;;19.40;99.90;;;;;;4982447;28;20026;-57
2022/06/05 10:52:22;;;;;;;10.55;8.63;;;19.70;99.90;;;;;;4986216;28;20038;-58
2022/06/05 10:55:06;;;;;;;8.35;7.55;;;19.80;99.90;;;;;;4989326;28;20018;-59
2022/06/05 10:57:39;;;;;;;11.00;8.23;;;20.10;99.90;;;;;;4994960;28;20018;-57
2022/06/05 11:00:27;;;;;;;8.38;6.80;;;20.40;99.90;;;;;;4986315;28;20045;-53
2022/06/05 11:03:16;;;;;;;7.35;6.65;;;20.70;99.90;;;;;;4990634;28;20027;-60
2022/06/05 11:06:27;;;;;;;9.98;6.95;;;20.90;99.90;;;;;;4981356;28;20034;-60
2022/06/05 11:09:19;;;;;;;8.38;7.47;;;21.10;99.90;;;;;;4987409;28;20129;-58
2022/06/05 11:15:05;;;;;;;7.63;6.03;;;20.90;99.90;;;;;;4988435;28;20092;-60
2022/06/05 11:17:48;;;;;;;9.60;6.38;;;21.30;99.90;;;;;;4988515;28;20057;-53
2022/06/05 11:20:16;;;;;;;7.53;6.43;;;21.80;99.90;;;;;;4989655;28;20523;-58
2022/06/05 11:22:56;;;;;;;7.13;5.80;;;22.40;99.90;;;;;;4991563;28;20049;-60
2022/06/05 11:25:42;;;;;;;6.65;5.55;;;22.90;99.90;;;;;;5001301;28;20388;-61
2022/06/05 11:28:08;;;;;;;6.53;5.82;;;23.20;99.90;;;;;;4984564;28;20415;-60
2022/06/05 11:30:58;;;;;;;7.28;5.40;;;23.10;99.90;;;;;;4992513;28;20040;-57
2022/06/05 11:33:26;;;;;;;8.65;5.30;;;23.30;99.90;;;;;;4993086;28;20023;-60
2022/06/05 11:36:00;;;;;;;7.47;5.93;;;23.00;99.90;;;;;;4988055;28;20092;-60
2022/06/05 11:39:07;;;;;;;6.50;5.88;;;23.10;99.90;;;;;;4991683;28;20022;-60
2022/06/05 11:41:51;;;;;;;6.75;5.38;;;23.20;99.90;;;;;;4998602;28;20121;-61
2022/06/05 11:44:28;;;;;;;9.32;6.40;;;23.40;99.90;;;;;;4996189;28;20646;-57
2022/06/05 11:47:06;;;;;;;6.55;5.95;;;23.00;99.90;;;;;;4995091;28;20499;-59
2022/06/05 11:49:57;;;;;;;6.97;5.72;;;22.80;99.90;;;;;;5000540;28;20143;-58
2022/06/05 11:52:33;;;;;;;7.55;5.70;;;23.10;99.90;;;;;;4992957;28;20030;-56
2022/06/05 11:55:14;;;;;;;7.57;5.28;;;23.20;99.90;;;;;;4986092;28;20033;-58
2022/06/05 11:57:50;;;;;;;9.13;6.25;;;23.00;99.90;;;;;;4989418;28;20022;-58
2022/06/05 12:00:39;;;;;;;6.55;5.95;;;22.90;99.90;;;;;;4990775;28;20053;-56
2022/06/05 12:03:17;;;;;;;11.60;6.15;;;22.80;99.90;;;;;;4992173;28;20039;-58
2022/06/05 12:05:48;;;;;;;8.02;6.43;;;22.50;99.90;;;;;;4990996;28;20033;-57
2022/06/05 12:08:23;;;;;;;8.88;6.88;;;22.30;99.90;;;;;;4974652;28;20116;-58
2022/06/05 12:11:05;;;;;;;6.72;6.13;;;22.10;99.90;;;;;;4988873;28;20034;-53
2022/06/05 12:13:49;;;;;;;7.57;5.95;;;22.00;99.90;;;;;;4990176;28;20031;-56
2022/06/05 12:16:38;;;;;;;7.63;6.50;;;22.00;99.90;;;;;;4990340;28;20034;-55
2022/06/05 12:19:33;;;;;;;6.55;5.80;;;21.80;99.90;;;;;;4990903;28;20715;-58
2022/06/05 12:22:19;;;;;;;7.15;6.45;;;21.60;99.90;;;;;;4988353;28;20058;-60
2022/06/05 12:24:55;;;;;;;8.43;6.30;;;21.60;99.90;;;;;;4986999;28;20026;-58
2022/06/05 12:27:21;;;;;;;7.47;6.60;;;21.80;99.90;;;;;;4985883;28;20066;-57
2022/06/05 12:30:23;;;;;;;7.78;6.97;;;22.00;99.90;;;;;;4989403;28;20108;-59
2022/06/05 12:33:02;;;;;;;8.13;7.30;;;21.90;99.90;;;;;;4997449;28;20034;-59
2022/06/05 12:35:40;;;;;;;7.90;7.10;;;21.70;99.90;;;;;;4990865;28;20031;-60
2022/06/05 12:38:22;;;;;;;7.10;6.40;;;21.60;99.90;;;;;;4987873;28;20125;-58
2022/06/05 12:41:02;;;;;;;8.27;6.93;;;21.40;99.90;;;;;;4986923;28;20089;-60
2022/06/05 12:43:40;;;;;;;7.25;6.55;;;21.20;99.90;;;;;;4988033;28;20042;-58
2022/06/05 12:46:27;;;;;;;9.93;6.40;;;21.30;99.90;;;;;;4993328;28;20041;-55
2022/06/05 12:49:18;;;;;;;7.43;6.63;;;21.30;99.90;;;;;;4985564;28;20029;-58
2022/06/05 12:51:52;;;;;;;8.63;6.80;;;21.20;99.90;;;;;;4986765;28;20026;-59
2022/06/05 12:54:28;;;;;;;7.97;6.80;;;21.20;99.90;;;;;;4989990;28;20050;-55
2022/06/05 12:56:57;;;;;;;9.57;7.30;;;21.20;99.90;;;;;;4991206;28;20019;-58
2022/06/05 12:59:40;;;;;;;7.72;7.03;;;21.10;99.90;;;;;;4985820;28;20030;-57
2022/06/05 13:02:31;;;;;;;8.07;7.28;;;21.00;99.90;;;;;;4987175;28;20069;-56
2022/06/05 13:05:21;;;;;;;8.55;7.75;;;21.10;99.90;;;;;;4985875;28;20133;-59
2022/06/05 13:07:58;;;;;;;8.55;7.80;;;21.00;99.90;;;;;;4990150;28;20614;-60
2022/06/05 13:10:28;;;;;;;9.25;6.72;;;21.00;99.90;;;;;;4991176;28;20443;-58
2022/06/05 13:13:22;;;;;;;7.88;7.07;;;21.10;99.90;;;;;;4991306;28;20026;-61
2022/06/05 13:16:03;;;;;;;;;;;21.10;99.90;;;;;;4986113;28;20020;-59
2022/06/05 13:18:46;;;;;;;7.45;6.38;;;21.10;99.90;;;;;;4990874;28;19909;-59
2022/06/05 13:21:25;;;;;;;7.70;6.97;;;21.20;99.90;;;;;;4986604;28;20038;-59
2022/06/05 13:23:57;;;;;;;7.18;6.28;;;21.40;99.90;;;;;;4987502;28;20026;-54
2022/06/05 13:26:45;;;;;;;10.30;6.30;;;21.80;99.90;;;;;;4990195;28;20038;-57
2022/06/05 13:29:11;;;;;;;7.13;6.35;;;21.90;99.90;;;;;;4993939;28;20038;-59
2022/06/05 13:32:04;;;;;;;8.43;6.57;;;22.20;99.90;;;;;;4999830;28;20048;-58
2022/06/05 13:34:51;;;;;;;6.75;6.13;;;22.30;99.90;;;;;;4989858;28;20033;-58